KHVE

Hanksville Airport

Hanksville, Utah, USA
METAR KHVE 280055Z AUTO 29015G21KT 10SM SCT110 25/M02 A2989 RMK AO2
Observed Flight Rules
May-28 @ 00:55 UTC (21 minutes ago) Visual Flight Rules
Wind Visibility Clouds
290° at 15 knots
 Gusting to 21 knots
10 miles
  • Scattered at 11,000' AGL
Temperatures Readings
Current 25°C / 77°F
Dewpoint -2°C / 28°F
Humidity 17%
Altimeter 29.89" Hg
Pressure 1012 hPa
Elevation 1350
METAR KHVE 280055Z AUTO 29015G21KT 10SM SCT110 25/M02 A2989 RMK AO2
Observed Flight Rules
May-28 @ 00:55 UTC
(21 minutes ago)
VFR
Wind Visibility
290° at 15 knots
 Gusting to 21 knots
10 miles
Clouds
  • Scattered at 11,000' AGL
Temperature Dewpoint
25°C / 77°F -2°C / 28°F
Humidity Altimeter Pressure
17% 29.89" Hg 1012 hPa